createdAt,value
2022-11-05T00:00:34.208Z,7.60
2022-11-05T00:03:20.252Z,7.70
2022-11-05T00:06:08.097Z,7.70
2022-11-05T00:08:54.514Z,7.60
2022-11-05T00:11:42.031Z,7.60
2022-11-05T00:14:28.142Z,7.60
2022-11-05T00:16:55.541Z,7.60
2022-11-05T00:19:22.881Z,7.60
2022-11-05T00:22:09.127Z,7.70
2022-11-05T00:24:54.999Z,7.70
2022-11-05T00:27:22.398Z,7.70
2022-11-05T00:29:49.731Z,7.70
2022-11-05T00:32:17.136Z,7.70
2022-11-05T00:34:44.505Z,7.70
2022-11-05T00:37:11.874Z,7.70
2022-11-05T00:39:39.285Z,7.70
2022-11-05T00:42:24.948Z,7.70
2022-11-05T00:45:01.152Z,7.80
2022-11-05T00:47:48.199Z,7.80
2022-11-05T00:50:15.888Z,7.80
2022-11-05T00:52:55.493Z,7.70
2022-11-05T00:55:24.504Z,7.70
2022-11-05T00:57:52.322Z,7.70
2022-11-05T01:00:20.392Z,7.70
2022-11-05T01:02:47.914Z,7.70
2022-11-05T01:05:15.449Z,7.70
2022-11-05T01:07:42.878Z,7.70
2022-11-05T01:10:10.475Z,7.70
2022-11-05T01:12:37.887Z,7.70
2022-11-05T01:15:06.333Z,7.70
2022-11-05T01:17:33.709Z,7.70
2022-11-05T01:20:01.121Z,7.70
2022-11-05T01:22:28.645Z,7.80
2022-11-05T01:24:56.081Z,7.70
2022-11-05T01:27:23.499Z,7.80
2022-11-05T01:29:50.861Z,7.80
2022-11-05T01:32:18.217Z,7.80
2022-11-05T01:34:45.617Z,7.80
2022-11-05T01:37:13.749Z,7.70
2022-11-05T01:39:41.169Z,7.80
2022-11-05T01:42:24.277Z,7.80
2022-11-05T01:45:06.934Z,7.80
2022-11-05T01:48:08.845Z,7.80
2022-11-05T01:50:51.386Z,7.80
2022-11-05T01:53:36.877Z,7.70
2022-11-05T01:56:20.578Z,7.70
2022-11-05T01:59:00.514Z,7.80
2022-11-05T02:01:28.357Z,7.80
2022-11-05T02:04:01.745Z,7.80
2022-11-05T02:06:32.129Z,7.80
2022-11-05T02:09:12.876Z,7.80
2022-11-05T02:11:40.336Z,7.80
2022-11-05T02:14:07.822Z,7.70
2022-11-05T02:16:48.431Z,7.70
2022-11-05T02:19:43.479Z,7.70
2022-11-05T02:22:40.787Z,7.70
2022-11-05T02:25:27.071Z,7.70
2022-11-05T02:28:00.684Z,7.70
2022-11-05T02:30:47.564Z,7.70
2022-11-05T02:33:26.572Z,7.70
2022-11-05T02:36:02.288Z,7.70
2022-11-05T02:38:38.481Z,7.70
2022-11-05T02:41:35.246Z,7.70
2022-11-05T02:44:05.431Z,7.70
2022-11-05T02:47:08.227Z,7.70
2022-11-05T02:49:54.425Z,7.70
2022-11-05T02:52:32.009Z,7.70
2022-11-05T02:55:08.512Z,7.70
2022-11-05T02:57:36.774Z,7.70
2022-11-05T03:00:28.595Z,7.70
2022-11-05T03:02:56.013Z,7.70
2022-11-05T03:05:34.050Z,7.70
2022-11-05T03:08:09.099Z,7.70
2022-11-05T03:10:46.156Z,7.70
2022-11-05T03:13:28.777Z,7.70
2022-11-05T03:16:05.578Z,7.70
2022-11-05T03:18:42.445Z,7.70
2022-11-05T03:21:12.981Z,7.70
2022-11-05T03:23:49.141Z,7.70
2022-11-05T03:26:26.422Z,7.70
2022-11-05T03:28:59.649Z,7.70
2022-11-05T03:31:30.217Z,7.70
2022-11-05T03:33:59.620Z,7.70
2022-11-05T03:36:45.083Z,7.60
2022-11-05T03:39:19.325Z,7.60
2022-11-05T03:41:51.398Z,7.60
2022-11-05T03:44:26.083Z,7.60
2022-11-05T03:46:58.275Z,7.50
2022-11-05T03:49:31.849Z,7.60
2022-11-05T03:52:08.085Z,7.60
2022-11-05T03:54:36.011Z,7.60
2022-11-05T03:57:10.833Z,7.60
2022-11-05T03:59:46.665Z,7.60
2022-11-05T04:02:16.741Z,7.60
2022-11-05T04:04:44.261Z,7.60
2022-11-05T04:07:30.602Z,7.60
2022-11-05T04:10:16.508Z,7.60
2022-11-05T04:13:02.396Z,7.60
2022-11-05T04:15:30.072Z,7.60
2022-11-05T04:18:00.362Z,7.70
2022-11-05T04:20:46.187Z,7.70
2022-11-05T04:23:31.916Z,7.80
2022-11-05T04:25:59.268Z,7.80
2022-11-05T04:28:46.601Z,7.80
2022-11-05T04:31:13.935Z,7.90
2022-11-05T04:33:41.269Z,7.90
2022-11-05T04:36:08.831Z,8.00
2022-11-05T04:38:36.138Z,8.00
2022-11-05T04:41:29.876Z,8.00
2022-11-05T04:43:57.307Z,8.00
2022-11-05T04:46:24.680Z,8.00
2022-11-05T04:48:52.052Z,8.00
2022-11-05T04:51:19.488Z,8.00
2022-11-05T04:53:46.955Z,8.00
2022-11-05T04:56:22.255Z,8.10
2022-11-05T04:58:50.147Z,8.00
2022-11-05T05:01:20.062Z,8.00
2022-11-05T05:03:51.858Z,8.00
2022-11-05T05:06:19.904Z,8.10
2022-11-05T05:08:48.708Z,8.00
2022-11-05T05:11:18.074Z,8.10
2022-11-05T05:13:45.470Z,8.10
2022-11-05T05:16:25.582Z,8.10
2022-11-05T05:18:54.292Z,8.00
2022-11-05T05:21:48.961Z,8.10
2022-11-05T05:24:19.304Z,8.10
2022-11-05T05:26:49.383Z,8.10
2022-11-05T05:29:18.034Z,8.10
2022-11-05T05:31:45.607Z,8.10
2022-11-05T05:34:14.640Z,8.10
2022-11-05T05:36:42.108Z,8.10
2022-11-05T05:39:11.131Z,8.20
2022-11-05T05:41:38.727Z,8.20
2022-11-05T05:44:06.583Z,8.20
2022-11-05T05:46:34.210Z,8.20
2022-11-05T05:49:01.601Z,8.30
2022-11-05T05:51:29.059Z,8.30
2022-11-05T05:53:56.531Z,8.30
2022-11-05T05:56:23.857Z,8.30
2022-11-05T05:58:51.809Z,8.40
2022-11-05T06:01:20.240Z,8.40
2022-11-05T06:03:49.358Z,8.40
2022-11-05T06:06:21.264Z,8.40
2022-11-05T06:08:49.232Z,8.40
2022-11-05T06:11:16.715Z,8.40
2022-11-05T06:13:44.085Z,8.50
2022-11-05T06:16:11.489Z,8.50
2022-11-05T06:18:38.934Z,8.40
2022-11-05T06:21:09.337Z,8.50
2022-11-05T06:23:38.604Z,8.50
2022-11-05T06:26:09.541Z,8.50
2022-11-05T06:28:37.285Z,8.50
2022-11-05T06:31:05.554Z,8.50
2022-11-05T06:33:32.936Z,8.50
2022-11-05T06:36:01.655Z,8.50
2022-11-05T06:38:31.498Z,8.50
2022-11-05T06:40:59.631Z,8.50
2022-11-05T06:43:28.155Z,8.50
2022-11-05T06:45:56.115Z,8.50
2022-11-05T06:48:25.290Z,8.50
2022-11-05T06:50:52.761Z,8.50
2022-11-05T06:53:20.763Z,8.50
2022-11-05T06:55:48.234Z,8.50
2022-11-05T06:58:16.118Z,8.60
2022-11-05T07:00:43.540Z,8.60
2022-11-05T07:03:12.189Z,8.60
2022-11-05T07:05:43.539Z,8.70
2022-11-05T07:08:11.009Z,8.70
2022-11-05T07:10:39.253Z,8.80
2022-11-05T07:13:08.394Z,8.70
2022-11-05T07:15:38.065Z,8.80
2022-11-05T07:18:07.590Z,8.80
2022-11-05T07:20:35.707Z,8.70
2022-11-05T07:23:11.025Z,8.70
2022-11-05T07:25:39.078Z,8.70
2022-11-05T07:28:06.816Z,8.70
2022-11-05T07:30:35.064Z,8.70
2022-11-05T07:33:03.485Z,8.80
2022-11-05T07:35:30.939Z,8.70
2022-11-05T07:37:58.764Z,8.70
2022-11-05T07:40:28.662Z,8.70
2022-11-05T07:42:58.448Z,8.70
2022-11-05T07:45:27.001Z,8.70
2022-11-05T07:48:00.615Z,8.70
2022-11-05T07:50:30.883Z,8.70
2022-11-05T07:53:06.896Z,8.70
2022-11-05T07:55:34.741Z,8.80
2022-11-05T07:58:02.239Z,8.80
2022-11-05T08:00:30.661Z,8.80
2022-11-05T08:03:28.849Z,8.90
2022-11-05T08:05:56.246Z,8.90
2022-11-05T08:08:23.644Z,8.90
2022-11-05T08:10:51.452Z,8.90
2022-11-05T08:13:19.241Z,9.00
2022-11-05T08:15:46.632Z,9.00
2022-11-05T08:18:16.782Z,9.00
2022-11-05T08:20:45.512Z,9.10
2022-11-05T08:23:14.450Z,9.10
2022-11-05T08:25:42.162Z,9.20
2022-11-05T08:28:12.901Z,9.20
2022-11-05T08:30:40.609Z,9.20
2022-11-05T08:33:11.198Z,9.30
2022-11-05T08:35:39.804Z,9.20
2022-11-05T08:38:09.098Z,9.30
2022-11-05T08:40:37.300Z,9.30
2022-11-05T08:43:06.993Z,9.30
2022-11-05T08:45:38.344Z,9.30
2022-11-05T08:48:08.880Z,9.40
2022-11-05T08:50:37.331Z,9.40
2022-11-05T08:53:06.136Z,9.50
2022-11-05T08:55:34.335Z,9.40
2022-11-05T08:58:04.067Z,9.50
2022-11-05T09:00:34.357Z,9.50
2022-11-05T09:03:03.901Z,9.50
2022-11-05T09:05:32.376Z,9.50
2022-11-05T09:08:01.525Z,9.50
2022-11-05T09:10:29.127Z,9.50
2022-11-05T09:12:56.722Z,9.60
2022-11-05T09:15:24.578Z,9.60
2022-11-05T09:17:52.122Z,9.60
2022-11-05T09:20:19.594Z,9.60
2022-11-05T09:22:47.159Z,9.70
2022-11-05T09:25:15.986Z,9.70
2022-11-05T09:27:44.180Z,9.70
2022-11-05T09:30:13.189Z,9.70
2022-11-05T09:32:40.801Z,9.80
2022-11-05T09:35:09.250Z,9.80
2022-11-05T09:37:37.420Z,9.80
2022-11-05T09:40:05.474Z,9.90
2022-11-05T09:42:41.269Z,9.90
2022-11-05T09:45:13.534Z,10.00
2022-11-05T09:47:44.776Z,10.00
2022-11-05T09:50:24.319Z,10.10
2022-11-05T09:52:51.841Z,10.20
2022-11-05T09:55:26.628Z,10.20
2022-11-05T09:58:02.862Z,10.20
2022-11-05T10:00:31.473Z,10.20
2022-11-05T10:03:05.155Z,10.20
2022-11-05T10:05:34.178Z,10.20
2022-11-05T10:08:20.126Z,10.20
2022-11-05T10:10:54.218Z,10.30
2022-11-05T10:13:40.813Z,10.30
2022-11-05T10:16:36.129Z,10.30
2022-11-05T10:19:24.629Z,10.30
2022-11-05T10:22:06.692Z,10.40
2022-11-05T10:24:34.580Z,10.40
2022-11-05T10:27:02.635Z,10.50
2022-11-05T10:29:33.146Z,10.50
2022-11-05T10:32:05.551Z,10.50
2022-11-05T10:34:36.235Z,10.60
2022-11-05T10:37:04.590Z,10.60
2022-11-05T10:39:33.936Z,10.70
2022-11-05T10:42:07.284Z,10.70
2022-11-05T10:44:40.257Z,10.70
2022-11-05T10:47:33.804Z,10.70
2022-11-05T10:50:09.462Z,10.80
2022-11-05T10:52:48.739Z,10.80
2022-11-05T10:55:22.100Z,10.90
2022-11-05T10:57:49.850Z,10.90
2022-11-05T11:00:17.988Z,11.00
2022-11-05T11:02:53.763Z,11.10
2022-11-05T11:05:23.655Z,11.20
2022-11-05T11:08:04.587Z,11.20
2022-11-05T11:10:40.918Z,11.20
2022-11-05T11:13:23.249Z,11.30
2022-11-05T11:15:51.240Z,11.30
2022-11-05T11:18:40.227Z,11.30
2022-11-05T11:21:19.830Z,11.30
2022-11-05T11:24:06.484Z,11.30
2022-11-05T11:26:37.083Z,11.40
2022-11-05T11:29:14.271Z,11.40
2022-11-05T11:31:42.346Z,11.40
2022-11-05T11:34:31.648Z,11.40
2022-11-05T11:37:07.727Z,11.40
2022-11-05T11:39:35.850Z,11.50
2022-11-05T11:42:10.538Z,11.50
2022-11-05T11:44:44.409Z,11.50
2022-11-05T11:47:17.537Z,11.50
2022-11-05T11:49:49.704Z,11.50
2022-11-05T11:52:36.576Z,11.60
2022-11-05T11:55:13.297Z,11.50
2022-11-05T11:58:04.701Z,11.60
2022-11-05T12:00:36.780Z,11.60
2022-11-05T12:03:46.783Z,11.70
2022-11-05T12:06:16.877Z,11.70
2022-11-05T12:08:49.497Z,11.70
2022-11-05T12:11:29.301Z,11.70
2022-11-05T12:14:34.184Z,11.80
2022-11-05T12:17:28.825Z,11.80
2022-11-05T12:20:18.586Z,11.80
2022-11-05T12:23:13.467Z,11.80
2022-11-05T12:25:53.045Z,11.80
2022-11-05T12:28:32.472Z,11.90
2022-11-05T12:31:12.881Z,11.90
2022-11-05T12:34:08.790Z,11.90
2022-11-05T12:36:58.872Z,11.90
2022-11-05T12:39:44.015Z,11.90
2022-11-05T12:42:22.902Z,11.90
2022-11-05T12:45:01.871Z,11.90
2022-11-05T12:47:38.271Z,11.90
2022-11-05T12:50:24.526Z,11.90
2022-11-05T12:53:11.889Z,11.90
2022-11-05T12:55:48.052Z,11.90
2022-11-05T12:58:25.414Z,11.90
2022-11-05T13:01:03.924Z,11.90
2022-11-05T13:03:45.689Z,11.90
2022-11-05T13:06:40.264Z,12.00
2022-11-05T13:09:10.716Z,12.00
2022-11-05T13:12:02.258Z,12.10
2022-11-05T13:14:37.040Z,12.10
2022-11-05T13:17:18.610Z,12.10
2022-11-05T13:20:06.433Z,12.10
2022-11-05T13:22:47.937Z,12.10
2022-11-05T13:25:25.261Z,12.20
2022-11-05T13:28:02.755Z,12.20
2022-11-05T13:30:37.337Z,12.20
2022-11-05T13:33:12.171Z,12.20
2022-11-05T13:36:12.962Z,12.20
2022-11-05T13:38:59.229Z,12.20
2022-11-05T13:41:46.995Z,12.20
2022-11-05T13:44:35.305Z,12.20
2022-11-05T13:47:08.739Z,12.20
2022-11-05T13:49:58.278Z,12.20
2022-11-05T13:53:13.961Z,12.30
2022-11-05T13:56:02.890Z,12.30
2022-11-05T13:59:02.553Z,12.30
2022-11-05T14:01:49.252Z,12.30
2022-11-05T14:04:37.892Z,12.30
2022-11-05T14:07:09.962Z,12.20
2022-11-05T14:09:39.677Z,12.20
2022-11-05T14:12:21.333Z,12.20
2022-11-05T14:14:58.384Z,12.20
2022-11-05T14:17:30.664Z,12.20
2022-11-05T14:20:06.562Z,12.20
2022-11-05T14:22:33.835Z,12.20
2022-11-05T14:25:22.404Z,12.20
2022-11-05T14:27:52.012Z,12.20
2022-11-05T14:30:47.294Z,12.20
2022-11-05T14:33:38.869Z,12.30
2022-11-05T14:36:21.375Z,12.20
2022-11-05T14:38:51.867Z,12.30
2022-11-05T14:41:20.882Z,12.30
2022-11-05T14:43:57.858Z,12.40
2022-11-05T14:46:25.860Z,12.40
2022-11-05T14:49:05.171Z,12.40
2022-11-05T14:51:42.536Z,12.40
2022-11-05T14:54:26.082Z,12.40
2022-11-05T14:56:59.680Z,12.40
2022-11-05T14:59:31.707Z,12.40
2022-11-05T15:02:03.018Z,12.40
2022-11-05T15:04:33.035Z,12.50
2022-11-05T15:07:03.436Z,12.50
2022-11-05T15:10:10.574Z,12.50
2022-11-05T15:12:42.133Z,12.50
2022-11-05T15:15:23.123Z,12.50
2022-11-05T15:18:28.170Z,12.50
2022-11-05T15:20:58.836Z,12.50
2022-11-05T15:23:48.837Z,12.50
2022-11-05T15:26:24.049Z,12.60
2022-11-05T15:28:53.407Z,12.60
2022-11-05T15:31:33.334Z,12.60
2022-11-05T15:34:18.612Z,12.60
2022-11-05T15:36:50.219Z,12.60
2022-11-05T15:39:38.621Z,12.70
2022-11-05T15:42:12.894Z,12.70
2022-11-05T15:44:42.642Z,12.70
2022-11-05T15:47:30.089Z,12.70
2022-11-05T15:50:14.695Z,12.70
2022-11-05T15:52:50.924Z,12.70
2022-11-05T15:55:23.642Z,12.70
2022-11-05T15:58:00.027Z,12.70
2022-11-05T16:00:30.181Z,12.70
2022-11-05T16:03:05.021Z,12.70
2022-11-05T16:05:42.937Z,12.70
2022-11-05T16:08:23.891Z,12.70
2022-11-05T16:10:56.852Z,12.60
2022-11-05T16:13:30.117Z,12.70
2022-11-05T16:16:03.624Z,12.70
2022-11-05T16:18:38.813Z,12.70
2022-11-05T16:21:13.370Z,12.70
2022-11-05T16:23:49.683Z,12.70
2022-11-05T16:26:55.784Z,12.70
2022-11-05T16:29:23.563Z,12.70
2022-11-05T16:31:53.225Z,12.70
2022-11-05T16:34:34.017Z,12.70
2022-11-05T16:37:01.680Z,12.70
2022-11-05T16:39:29.109Z,12.70
2022-11-05T16:41:56.544Z,12.70
2022-11-05T16:44:24.336Z,12.70
2022-11-05T16:46:52.764Z,12.80
2022-11-05T16:49:20.659Z,12.80
2022-11-05T16:51:48.050Z,12.80
2022-11-05T16:54:15.452Z,12.80
2022-11-05T16:56:43.863Z,12.80
2022-11-05T16:59:13.189Z,12.80
2022-11-05T17:01:42.997Z,12.80
2022-11-05T17:04:13.122Z,12.80
2022-11-05T17:06:40.567Z,12.80
2022-11-05T17:09:08.021Z,12.70
2022-11-05T17:11:35.521Z,12.70
2022-11-05T17:14:02.984Z,12.70
2022-11-05T17:16:30.432Z,12.70
2022-11-05T17:18:58.087Z,12.70
2022-11-05T17:21:25.454Z,12.70
2022-11-05T17:23:52.777Z,12.70
2022-11-05T17:26:20.241Z,12.70
2022-11-05T17:28:47.626Z,12.80
2022-11-05T17:31:17.267Z,12.80
2022-11-05T17:33:44.677Z,12.80
2022-11-05T17:36:14.769Z,12.80
2022-11-05T17:38:42.898Z,12.80
2022-11-05T17:41:15.570Z,12.80
2022-11-05T17:43:43.098Z,12.80
2022-11-05T17:46:13.337Z,12.80
2022-11-05T17:48:41.430Z,12.80
2022-11-05T17:51:10.581Z,12.80
2022-11-05T17:53:38.229Z,12.80
2022-11-05T17:56:10.078Z,12.80
2022-11-05T17:58:37.594Z,12.90
2022-11-05T18:01:06.590Z,12.90
2022-11-05T18:03:34.360Z,12.90
2022-11-05T18:06:06.025Z,12.90
2022-11-05T18:08:33.777Z,12.90
2022-11-05T18:11:01.288Z,12.90
2022-11-05T18:13:28.620Z,13.00
2022-11-05T18:15:56.129Z,13.00
2022-11-05T18:18:23.560Z,13.00
2022-11-05T18:20:50.981Z,13.00
2022-11-05T18:23:18.498Z,13.10
2022-11-05T18:25:45.988Z,13.10
2022-11-05T18:28:13.659Z,13.10
2022-11-05T18:30:41.339Z,13.00
2022-11-05T18:33:08.917Z,13.10
2022-11-05T18:35:43.788Z,13.00
2022-11-05T18:38:11.449Z,13.00
2022-11-05T18:40:38.842Z,13.00
2022-11-05T18:43:06.750Z,13.00
2022-11-05T18:45:34.261Z,13.00
2022-11-05T18:48:02.115Z,13.00
2022-11-05T18:50:29.638Z,13.00
2022-11-05T18:52:57.016Z,13.00
2022-11-05T18:55:24.875Z,13.00
2022-11-05T18:57:52.483Z,13.00
2022-11-05T19:00:20.273Z,13.00
2022-11-05T19:02:47.881Z,13.00
2022-11-05T19:05:28.665Z,13.10
2022-11-05T19:07:57.233Z,13.10
2022-11-05T19:10:25.200Z,13.10
2022-11-05T19:12:53.115Z,13.10
2022-11-05T19:15:20.483Z,13.10
2022-11-05T19:17:47.964Z,13.10
2022-11-05T19:20:15.498Z,13.10
2022-11-05T19:22:42.949Z,13.20
2022-11-05T19:25:10.367Z,13.20
2022-11-05T19:27:38.624Z,13.20
2022-11-05T19:30:06.645Z,13.20
2022-11-05T19:32:34.075Z,13.20
2022-11-05T19:35:01.459Z,13.20
2022-11-05T19:37:28.912Z,13.30
2022-11-05T19:39:56.237Z,13.30
2022-11-05T19:42:24.157Z,13.30
2022-11-05T19:44:51.554Z,13.30
2022-11-05T19:47:18.969Z,13.30
2022-11-05T19:49:46.426Z,13.40
2022-11-05T19:52:13.895Z,13.40
2022-11-05T19:54:41.353Z,13.40
2022-11-05T19:57:08.764Z,13.40
2022-11-05T19:59:36.161Z,13.40
2022-11-05T20:02:04.499Z,13.40
2022-11-05T20:04:32.160Z,13.40
2022-11-05T20:06:59.602Z,13.40
2022-11-05T20:09:27.280Z,13.40
2022-11-05T20:11:56.515Z,13.50
2022-11-05T20:14:25.707Z,13.50
2022-11-05T20:16:53.753Z,13.50
2022-11-05T20:19:22.759Z,13.50
2022-11-05T20:21:50.681Z,13.50
2022-11-05T20:24:25.197Z,13.50
2022-11-05T20:26:55.271Z,13.50
2022-11-05T20:29:24.070Z,13.40
2022-11-05T20:31:52.528Z,13.50
2022-11-05T20:34:20.057Z,13.40
2022-11-05T20:36:47.439Z,13.40
2022-11-05T20:39:15.117Z,13.40
2022-11-05T20:41:42.455Z,13.40
2022-11-05T20:44:10.347Z,13.40
2022-11-05T20:46:37.764Z,13.40
2022-11-05T20:49:05.307Z,13.40
2022-11-05T20:51:32.720Z,13.40
2022-11-05T20:54:01.576Z,13.40
2022-11-05T20:56:35.343Z,13.50
2022-11-05T20:59:03.624Z,13.50
2022-11-05T21:01:33.920Z,13.50
2022-11-05T21:04:02.942Z,13.50
2022-11-05T21:06:31.243Z,13.60
2022-11-05T21:08:58.680Z,13.60
2022-11-05T21:11:26.216Z,13.60
2022-11-05T21:13:53.677Z,13.60
2022-11-05T21:16:21.536Z,13.60
2022-11-05T21:18:48.945Z,13.60
2022-11-05T21:21:20.665Z,13.60
2022-11-05T21:23:48.323Z,13.60
2022-11-05T21:26:17.741Z,13.60
2022-11-05T21:28:45.079Z,13.60
2022-11-05T21:31:12.561Z,13.60
2022-11-05T21:33:40.269Z,13.60
2022-11-05T21:36:12.817Z,13.60
2022-11-05T21:38:41.338Z,13.60
2022-11-05T21:41:11.367Z,13.60
2022-11-05T21:43:39.522Z,13.60
2022-11-05T21:46:06.956Z,13.60
2022-11-05T21:48:34.362Z,13.60
2022-11-05T21:51:20.413Z,13.60
2022-11-05T21:54:06.162Z,13.60
2022-11-05T21:56:52.714Z,13.60
2022-11-05T21:59:41.414Z,13.60
2022-11-05T22:02:11.355Z,13.60
2022-11-05T22:04:44.810Z,13.60
2022-11-05T22:07:14.650Z,13.70
2022-11-05T22:09:42.733Z,13.70
2022-11-05T22:12:10.375Z,13.70
2022-11-05T22:14:38.242Z,13.70
2022-11-05T22:17:07.154Z,13.80
2022-11-05T22:19:35.608Z,13.70
2022-11-05T22:22:04.809Z,13.70
2022-11-05T22:24:33.679Z,13.80
2022-11-05T22:27:04.401Z,13.70
2022-11-05T22:29:32.026Z,13.70
2022-11-05T22:31:59.765Z,13.70
2022-11-05T22:34:27.577Z,13.70
2022-11-05T22:36:55.429Z,13.70
2022-11-05T22:39:23.557Z,13.70
2022-11-05T22:41:54.570Z,13.70
2022-11-05T22:44:22.139Z,13.70
2022-11-05T22:46:49.518Z,13.60
2022-11-05T22:49:17.004Z,13.70
2022-11-05T22:51:45.043Z,13.70
2022-11-05T22:54:13.025Z,13.70
2022-11-05T22:56:42.462Z,13.70
2022-11-05T22:59:14.483Z,13.70
2022-11-05T23:01:43.987Z,13.70
2022-11-05T23:04:12.439Z,13.70
2022-11-05T23:06:58.357Z,13.70
2022-11-05T23:09:46.627Z,13.60
2022-11-05T23:12:33.250Z,13.70
2022-11-05T23:15:05.658Z,13.60
2022-11-05T23:17:51.809Z,13.60
2022-11-05T23:20:40.558Z,13.60
2022-11-05T23:23:31.530Z,13.60
2022-11-05T23:26:21.787Z,13.60
2022-11-05T23:28:50.442Z,13.60
2022-11-05T23:31:40.579Z,13.60
2022-11-05T23:34:09.058Z,13.60
2022-11-05T23:36:56.685Z,13.60
2022-11-05T23:39:25.499Z,13.60
2022-11-05T23:42:12.388Z,13.60
2022-11-05T23:45:00.729Z,13.60
2022-11-05T23:47:47.103Z,13.60
2022-11-05T23:50:14.722Z,13.60
2022-11-05T23:52:42.106Z,13.60
2022-11-05T23:55:09.575Z,13.60
2022-11-05T23:57:37.981Z,13.60
